Historyczne dane pomiarowe

Dodano dane terminowe – wersja testowa.

Dane z okresu 1951-2019

Wersja bazy: 1.34 [2019-03-16, lista zmian], aktualizacja planowana na 2019-04-15

Dane meteo z obszaru Polski uzyskane na podstawie danych udostępnionych przez Instytut Meteorologii i Gospodarki Wodnej – Państwowy Instytut Badawczy.

 

Wybierz Datę:    

       

TemperaturaWilgotnośćWiatrCiśnienieOpadyŚniegCzas trwania zjawisk
 Stacja t tx tn tng RH VA  wxwx mslp ppp RRR   cm mm wxwxwxwxwxwxwx
1987-08-14 14.2 19.5 9.4 5.6 81.8- 5.7 1.7---- 9.5------------
1987-08-13 13.1 19.8 7.8 5.0 81.3- 5.0 1.3---- 0.0------------
1987-08-12 12.7 18.8 6.5 3.2 79.8- 3.3 1.3---- 0.0------------
1987-08-11 12.8 17.2 8.4 5.5 76.8- 4.3 2.7---- 0.6------------
1987-08-10 14.2 18.6 11.1 9.1 82.8- 7.3 1.7---- 2.6------------
1987-08-09 16.6 24.6 9.4 5.6 74.8- 3.7 1.7---- 2.9------------
1987-08-08 14.5 21.0 7.1 3.0 72.8- 3.7 0.7---- 0.0------------
1987-08-07 9.7 14.4 4.8 1.2 87.0- 6.7 1.3---- 2.5------------
1987-08-06 11.4 16.0 7.6 4.0 70.3- 2.7 2.3---- 0.0------------
1987-08-05 11.8 17.6 6.9 3.4 79.8- 4.7 1.0---- 0.4------------
1987-08-04 15.0 17.5 13.6 10.8 79.8- 7.0 2.3---- 0.1------------
1987-08-03 14.9 20.5 9.4 6.1 76.3- 5.7 1.7---- 1.3------------
1987-08-02 14.4 19.0 11.2 9.2 77.8- 6.3 1.0---- 1.8------------
1987-08-01 15.7 19.3 12.4 9.5 83.5- 6.3 1.0---- 5.0------------
1987-07-31 15.3 22.2 13.4 14.0 85.3- 7.3 0.7---- 2.0------------
1987-07-30 17.2 25.0 8.2 5.4 72.8- 3.7 0.3---- 5.5------------
1987-07-29 14.4 18.5 9.4 6.7 76.5- 5.7 0.3---- 0.0------------
1987-07-28 12.8 15.8 12.0 11.1 83.0- 7.3 2.7---- 2.5------------
1987-07-27 12.8 17.0 8.6 6.5 65.8- 7.0 4.0---- 3.0------------
1987-07-26 12.6 16.1 11.4 11.6 86.8- 6.3 1.0---- 0.8------------
1987-07-25 17.7 24.2 14.4 11.9 80.3- 6.0 1.0---- 1.4------------
1987-07-24 20.0 25.0 15.5 13.3 80.8- 4.7 0.3---- 1.5------------
1987-07-23 19.5 26.6 12.4 10.0 78.3- 2.7 0.3---- 11.6------------
1987-07-22 19.1 24.0 12.8 9.8 75.8- 2.7 0.3---- 0.0------------
1987-07-21 17.6 23.7 12.3 9.8 84.0- 4.7 1.0---- 0.0------------
1987-07-20 18.4 22.5 15.4 15.1 79.8- 4.3 1.3---- 0.0------------
1987-07-19 18.9 23.5 17.7 16.3 87.3- 7.0 1.7---- 9.6------------
1987-07-18 21.9 27.0 16.3 13.1 82.3- 4.7 2.3---- 4.5------------
1987-07-17 23.3 30.0 18.6 16.3 71.0- 6.0 1.0---- 0.0------------
1987-07-16 21.6 27.5 12.7 10.1 72.3- 3.0 1.3---- 0.0------------
1987-07-15 18.5 24.6 11.1 7.5 65.8- 2.3 0.7---- 0.0------------
1987-07-14 16.4 20.7 10.1 7.1 68.5- 7.0 0.7---- 0.0------------
1987-07-13 17.7 23.5 12.6 9.8 76.5- 4.3 1.3---- 0.0------------
1987-07-12 20.0 29.0 13.9 11.5 73.8- 5.3 3.3---- 7.7------------
1987-07-11 18.2 25.3 8.4 5.8 64.3- 2.7 1.0---- 0.0------------
1987-07-10 14.8 20.5 8.5 6.2 72.3- 3.0 1.7---- 0.0------------
1987-07-09 15.8 23.7 13.8 14.8 93.0- 8.0 2.0---- 4.5------------
1987-07-08 23.4 28.2 17.2 11.3 57.0- 4.7 0.3---- 5.0------------
1987-07-07 19.8 27.0 11.0 7.6 59.0- 0.7 1.7---- 0.0------------
1987-07-06 17.5 23.3 9.5 7.2 68.0- 1.0 0.0---- 0.0------------
1987-07-05 15.7 20.3 11.1 9.4 74.8- 3.3 1.3---- 0.0------------
1987-07-04 17.8 23.4 11.8 9.6 78.0- 4.3 1.3---- 0.0------------
1987-07-03 18.0 22.0 12.9 11.8 81.8- 6.0 0.3---- 0.0------------
1987-07-02 16.8 19.9 14.4 15.4 91.8- 6.3 1.3---- 3.0------------
1987-07-01 23.2 31.1 15.6 13.1 78.5- 3.7 1.0---- 58.8------------
1987-06-30 23.8 30.4 16.0 13.3 67.0- 0.3 1.3---- 0.0------------
1987-06-29 21.8 26.7 16.7 13.8 70.0- 1.0 0.3---- 0.0------------
1987-06-28 19.1 26.5 10.3 7.5 75.8- 5.0 1.3---- 0.0------------
1987-06-27 16.2 19.7 14.3 12.3 87.3- 5.7 0.7---- 1.0------------
1987-06-26 16.4 23.3 8.8 4.9 75.3- 5.0 1.7---- 11.2------------
1987-06-25 13.8 18.1 11.4 8.3 82.8- 6.7 1.3---- 1.1------------
1987-06-24 15.5 21.0 9.9 6.1 75.8- 5.3 0.3---- 1.1------------
1987-06-23 15.1 21.5 9.4 9.6 77.8- 6.3 0.7---- 0.0------------
1987-06-22 13.0 17.0 11.9 11.4 91.3- 8.0 2.3---- 0.0------------
1987-06-21 16.5 23.0 9.8 6.6 77.0- 4.7 0.7---- 2.2------------
1987-06-20 14.5 21.0 10.3 7.2 76.0- 6.3 1.3---- 0.0------------
1987-06-19 12.5 17.6 7.1 4.4 71.0- 5.0 1.0---- 0.0------------
1987-06-18 10.6 15.2 6.6 3.4 71.8- 7.0 1.7---- 2.7------------
1987-06-17 11.4 16.8 8.0 5.1 73.0- 5.7 1.3---- 0.4------------
1987-06-16 12.9 24.7 10.0 9.8 78.8- 6.3 3.7---- 1.5------------
638.3 ms

 

Źródłem pochodzenia danych jest Instytut Meteorologii i Gospodarki Wodnej – Państwowy Instytut Badawczy. Dane Instytutu Meteorologii i Gospodarki Wodnej – Państwowego Instytutu Badawczego zostały przetworzone.

Dane źródłowe można odnaleźć na stronie https://dane.imgw.pl